createdAt,value
2022-09-22T00:02:06.502Z,24.67
2022-09-22T00:04:34.756Z,15.02
2022-09-22T00:07:02.728Z,13.50
2022-09-22T00:09:29.938Z,11.30
2022-09-22T00:11:57.020Z,10.10
2022-09-22T00:14:26.876Z,10.80
2022-09-22T00:17:01.464Z,11.27
2022-09-22T00:19:33.237Z,10.57
2022-09-22T00:22:00.384Z,10.18
2022-09-22T00:24:29.038Z,10.80
2022-09-22T00:26:58.650Z,10.07
2022-09-22T00:29:27.277Z,11.70
2022-09-22T00:31:56.279Z,10.93
2022-09-22T00:34:25.427Z,10.98
2022-09-22T00:36:58.521Z,11.20
2022-09-22T00:39:27.921Z,10.98
2022-09-22T00:41:55.227Z,10.77
2022-09-22T00:44:32.809Z,11.30
2022-09-22T00:47:18.830Z,11.93
2022-09-22T00:50:15.737Z,11.57
2022-09-22T00:52:50.713Z,17.02
2022-09-22T00:55:29.235Z,11.60
2022-09-22T00:58:00.149Z,35.88
2022-09-22T01:00:28.279Z,14.93
2022-09-22T01:02:58.636Z,12.10
2022-09-22T01:05:29.308Z,12.07
2022-09-22T01:07:57.561Z,11.15
2022-09-22T01:10:26.709Z,11.73
2022-09-22T01:13:10.122Z,14.32
2022-09-22T01:16:03.556Z,17.60
2022-09-22T01:18:53.763Z,17.02
2022-09-22T01:21:53.730Z,12.35
2022-09-22T01:24:47.931Z,14.10
2022-09-22T01:30:12.175Z,10.90
2022-09-22T01:32:48.048Z,11.45
2022-09-22T01:35:34.576Z,11.13
2022-09-22T01:38:22.279Z,11.80
2022-09-22T01:41:00.501Z,10.73
2022-09-22T01:43:48.535Z,10.98
2022-09-22T01:46:41.389Z,12.38
2022-09-22T01:49:15.980Z,11.25
2022-09-22T01:51:53.802Z,11.38
2022-09-22T01:54:46.217Z,11.73
2022-09-22T01:57:20.483Z,11.20
2022-09-22T01:59:55.609Z,11.55
2022-09-22T02:02:57.463Z,10.90
2022-09-22T02:05:51.299Z,11.80
2022-09-22T02:08:49.947Z,10.32
2022-09-22T02:11:23.713Z,10.85
2022-09-22T02:13:51.601Z,11.15
2022-09-22T02:16:22.615Z,17.63
2022-09-22T02:19:17.064Z,11.52
2022-09-22T02:21:48.412Z,13.73
2022-09-22T02:24:34.256Z,11.90
2022-09-22T02:27:10.733Z,10.68
2022-09-22T02:29:45.921Z,15.48
2022-09-22T02:32:17.253Z,48.58
2022-09-22T02:34:48.017Z,11.68
2022-09-22T02:37:23.912Z,10.50
2022-09-22T02:40:29.104Z,11.75
2022-09-22T02:43:08.211Z,11.98
2022-09-22T02:45:48.232Z,11.88
2022-09-22T02:48:29.355Z,12.57
2022-09-22T02:50:57.587Z,12.75
2022-09-22T02:53:25.620Z,14.90
2022-09-22T02:55:52.800Z,16.90
2022-09-22T02:58:23.842Z,16.00
2022-09-22T03:00:51.893Z,16.90
2022-09-22T03:03:19.899Z,16.58
2022-09-22T03:05:47.992Z,15.10
2022-09-22T03:08:26.414Z,14.73
2022-09-22T03:10:54.629Z,14.20
2022-09-22T03:13:29.814Z,13.52
2022-09-22T03:15:58.845Z,12.93
2022-09-22T03:18:27.890Z,13.50
2022-09-22T03:20:56.040Z,14.05
2022-09-22T03:23:27.422Z,15.55
2022-09-22T03:26:03.866Z,15.88
2022-09-22T03:28:32.950Z,17.23
2022-09-22T03:31:06.264Z,18.45
2022-09-22T03:33:33.336Z,20.15
2022-09-22T03:36:00.235Z,19.83
2022-09-22T03:38:27.291Z,21.38
2022-09-22T03:40:55.369Z,23.55
2022-09-22T03:43:24.913Z,22.30
2022-09-22T03:46:08.498Z,23.92
2022-09-22T03:48:35.615Z,25.25
2022-09-22T03:51:04.738Z,24.77
2022-09-22T03:53:32.223Z,25.10
2022-09-22T03:56:11.752Z,25.98
2022-09-22T03:58:41.283Z,25.95
2022-09-22T04:01:11.511Z,27.52
2022-09-22T04:04:07.417Z,26.92
2022-09-22T04:06:37.071Z,26.83
2022-09-22T04:09:06.750Z,26.83
2022-09-22T04:11:36.606Z,26.88
2022-09-22T04:14:05.132Z,25.60
2022-09-22T04:16:32.240Z,26.67
2022-09-22T04:18:59.478Z,26.52
2022-09-22T04:21:30.854Z,26.25
2022-09-22T04:23:58.035Z,27.38
2022-09-22T04:26:25.083Z,26.40
2022-09-22T04:28:53.127Z,25.90
2022-09-22T04:31:23.215Z,26.98
2022-09-22T04:33:50.263Z,27.92
2022-09-22T04:36:17.449Z,28.40
2022-09-22T04:38:45.593Z,27.77
2022-09-22T04:41:12.654Z,27.48
2022-09-22T04:43:54.805Z,27.95
2022-09-22T04:46:26.824Z,28.40
2022-09-22T04:48:54.776Z,28.27
2022-09-22T04:51:22.000Z,28.48
2022-09-22T04:53:50.961Z,26.98
2022-09-22T04:56:19.998Z,26.80
2022-09-22T04:58:51.001Z,27.15
2022-09-22T05:01:18.034Z,27.30
2022-09-22T05:03:45.164Z,27.10
2022-09-22T05:06:17.966Z,26.52
2022-09-22T05:08:45.037Z,25.33
2022-09-22T05:11:12.455Z,26.73
2022-09-22T05:13:49.543Z,24.42
2022-09-22T05:16:17.559Z,26.10
2022-09-22T05:18:46.756Z,25.67
2022-09-22T05:21:14.910Z,25.13
2022-09-22T05:23:42.090Z,25.00
2022-09-22T05:26:10.056Z,25.55
2022-09-22T05:28:38.152Z,24.33
2022-09-22T05:31:14.498Z,25.63
2022-09-22T05:33:42.638Z,24.70
2022-09-22T05:36:09.621Z,26.85
2022-09-22T05:38:37.735Z,27.45
2022-09-22T05:41:08.805Z,26.08
2022-09-22T05:43:35.854Z,25.05
2022-09-22T05:46:03.914Z,25.20
2022-09-22T05:48:37.206Z,24.73
2022-09-22T05:51:10.009Z,24.70
2022-09-22T05:53:38.250Z,23.30
2022-09-22T05:56:06.420Z,23.77
2022-09-22T05:58:33.402Z,23.98
2022-09-22T06:01:01.407Z,24.05
2022-09-22T06:03:31.542Z,23.35
2022-09-22T06:05:58.712Z,24.00
2022-09-22T06:08:26.929Z,24.10
2022-09-22T06:10:54.933Z,24.40
2022-09-22T06:13:21.986Z,24.48
2022-09-22T06:15:49.414Z,22.63
2022-09-22T06:18:23.426Z,23.65
2022-09-22T06:20:51.846Z,22.60
2022-09-22T06:23:19.349Z,23.67
2022-09-22T06:25:46.334Z,23.35
2022-09-22T06:28:16.625Z,24.60
2022-09-22T06:30:52.154Z,24.25
2022-09-22T06:33:19.215Z,23.02
2022-09-22T06:35:46.474Z,22.60
2022-09-22T06:38:16.570Z,21.95
2022-09-22T06:40:45.183Z,21.80
2022-09-22T06:43:23.400Z,21.38
2022-09-22T06:45:53.261Z,22.05
2022-09-22T06:48:24.171Z,30.27
2022-09-22T06:50:53.968Z,21.38
2022-09-22T06:53:24.573Z,22.58
2022-09-22T06:55:54.477Z,20.83
2022-09-22T06:58:23.128Z,20.90
2022-09-22T07:00:53.997Z,19.55
2022-09-22T07:03:26.577Z,20.88
2022-09-22T07:06:01.242Z,20.30
2022-09-22T07:08:30.504Z,20.67
2022-09-22T07:11:04.595Z,20.75
2022-09-22T07:13:33.313Z,19.13
2022-09-22T07:16:03.523Z,18.35
2022-09-22T07:18:32.705Z,18.25
2022-09-22T07:21:08.527Z,17.00
2022-09-22T07:23:37.618Z,17.50
2022-09-22T07:26:08.140Z,18.35
2022-09-22T07:28:41.193Z,17.52
2022-09-22T07:31:15.002Z,16.42
2022-09-22T07:33:44.323Z,17.05
2022-09-22T07:36:14.591Z,16.15
2022-09-22T07:38:44.565Z,15.90
2022-09-22T07:41:15.016Z,16.83
2022-09-22T07:43:43.151Z,16.83
2022-09-22T07:46:13.468Z,17.17
2022-09-22T07:48:50.973Z,17.17
2022-09-22T07:51:22.537Z,15.57
2022-09-22T07:54:09.830Z,15.20
2022-09-22T07:56:43.490Z,15.95
2022-09-22T08:01:52.574Z,18.08
2022-09-22T08:04:32.184Z,16.55
2022-09-22T08:06:59.222Z,15.10
2022-09-22T08:09:29.947Z,14.43
2022-09-22T08:11:57.355Z,15.07
2022-09-22T08:14:24.529Z,17.58
2022-09-22T08:16:53.896Z,18.33
2022-09-22T08:19:23.934Z,16.45
2022-09-22T08:21:54.627Z,15.20
2022-09-22T08:24:23.316Z,14.40
2022-09-22T08:26:56.175Z,13.77
2022-09-22T08:29:24.743Z,12.03
2022-09-22T08:31:52.019Z,12.32
2022-09-22T08:34:19.109Z,15.15
2022-09-22T08:36:52.460Z,13.82
2022-09-22T08:39:19.760Z,13.85
2022-09-22T08:42:04.450Z,12.30
2022-09-22T08:44:46.810Z,10.85
2022-09-22T08:47:40.421Z,10.73
2022-09-22T08:50:48.761Z,11.43
2022-09-22T08:53:23.152Z,11.20
2022-09-22T08:56:05.508Z,11.10
2022-09-22T08:58:43.451Z,9.52
2022-09-22T09:01:39.668Z,11.90
2022-09-22T09:04:35.634Z,13.60
2022-09-22T09:07:31.683Z,12.30
2022-09-22T09:10:35.440Z,11.02
2022-09-22T09:13:25.069Z,11.70
2022-09-22T09:16:11.683Z,10.93
2022-09-22T09:18:44.668Z,10.52
2022-09-22T09:21:15.290Z,9.07
2022-09-22T09:29:21.276Z,7.80
2022-09-22T09:31:52.962Z,7.95
2022-09-22T09:34:29.237Z,6.57
2022-09-22T09:37:08.220Z,6.00
2022-09-22T09:39:43.300Z,5.00
2022-09-22T09:42:22.163Z,4.30
2022-09-22T09:45:02.816Z,4.38
2022-09-22T09:48:00.141Z,4.18
2022-09-22T09:50:32.607Z,4.28
2022-09-22T09:53:28.513Z,4.85
2022-09-22T09:56:01.805Z,5.00
2022-09-22T09:58:47.043Z,3.83
2022-09-22T10:01:24.081Z,4.18
2022-09-22T10:03:55.163Z,3.70
2022-09-22T10:06:28.932Z,3.58
2022-09-22T10:09:01.053Z,3.53
2022-09-22T10:13:58.946Z,2.17
2022-09-22T10:16:36.466Z,3.00
2022-09-22T10:19:27.951Z,3.20
2022-09-22T10:22:16.137Z,3.90
2022-09-22T10:25:04.162Z,2.80
2022-09-22T10:27:41.435Z,2.70
2022-09-22T10:30:22.093Z,2.90
2022-09-22T10:33:11.637Z,3.50
2022-09-22T10:35:40.773Z,3.20
2022-09-22T10:38:25.209Z,3.00
2022-09-22T10:44:37.588Z,3.40
2022-09-22T10:47:13.844Z,3.22
2022-09-22T10:50:05.105Z,3.20
2022-09-22T10:52:59.155Z,3.60
2022-09-22T10:55:46.674Z,2.55
2022-09-22T10:58:56.978Z,2.25
2022-09-22T11:01:31.963Z,3.10
2022-09-22T11:04:23.317Z,2.40
2022-09-22T11:07:49.372Z,2.40
2022-09-22T11:10:42.768Z,2.50
2022-09-22T11:13:13.337Z,2.10
2022-09-22T11:15:45.409Z,2.30
2022-09-22T11:18:33.623Z,2.10
2022-09-22T11:21:27.762Z,2.33
2022-09-22T11:24:30.890Z,2.00
2022-09-22T11:27:01.815Z,1.80
2022-09-22T11:29:42.095Z,1.92
2022-09-22T11:32:50.336Z,1.67
2022-09-22T11:35:44.928Z,1.60
2022-09-22T11:38:42.468Z,1.63
2022-09-22T11:41:29.876Z,1.50
2022-09-22T11:44:36.587Z,1.52
2022-09-22T11:47:07.568Z,1.58
2022-09-22T11:50:30.777Z,1.33
2022-09-22T11:53:06.078Z,1.50
2022-09-22T11:56:04.941Z,1.20
2022-09-22T11:58:33.842Z,1.50
2022-09-22T12:01:12.325Z,1.60
2022-09-22T12:03:45.155Z,1.50
2022-09-22T12:06:18.175Z,1.60
2022-09-22T12:08:58.495Z,1.35
2022-09-22T12:11:29.748Z,1.70
2022-09-22T12:14:00.346Z,1.35
2022-09-22T12:16:52.749Z,1.70
2022-09-22T12:19:44.562Z,1.52
2022-09-22T12:22:18.718Z,1.50
2022-09-22T12:24:47.509Z,1.67
2022-09-22T12:27:26.755Z,2.38
2022-09-22T12:30:01.172Z,4.65
2022-09-22T12:32:43.346Z,9.07
2022-09-22T12:35:27.443Z,2.90
2022-09-22T12:38:02.325Z,1.70
2022-09-22T12:40:37.482Z,1.50
2022-09-22T12:43:06.208Z,2.17
2022-09-22T12:45:41.102Z,1.58
2022-09-22T12:48:35.820Z,1.95
2022-09-22T12:51:31.663Z,1.17
2022-09-22T12:54:23.693Z,1.10
2022-09-22T12:57:05.074Z,1.55
2022-09-22T12:59:40.373Z,1.40
2022-09-22T13:02:16.366Z,1.00
2022-09-22T13:04:49.280Z,2.28
2022-09-22T13:07:37.892Z,1.63
2022-09-22T13:10:25.274Z,1.30
2022-09-22T13:13:07.171Z,1.50
2022-09-22T13:15:49.719Z,1.30
2022-09-22T13:18:45.811Z,1.60
2022-09-22T13:21:14.808Z,1.50
2022-09-22T13:24:03.225Z,1.73
2022-09-22T13:27:02.872Z,3.08
2022-09-22T13:29:31.301Z,5.72
2022-09-22T13:32:18.470Z,2.85
2022-09-22T13:34:49.608Z,3.63
2022-09-22T13:37:23.774Z,3.72
2022-09-22T13:39:55.131Z,3.85
2022-09-22T13:42:31.592Z,2.28
2022-09-22T13:45:13.967Z,4.07
2022-09-22T13:47:43.148Z,6.93
2022-09-22T13:50:22.082Z,11.98
2022-09-22T13:52:53.065Z,6.20
2022-09-22T13:55:36.419Z,3.42
2022-09-22T13:58:06.423Z,2.05
2022-09-22T14:01:08.762Z,1.75
2022-09-22T14:03:38.611Z,1.50
2022-09-22T14:06:12.346Z,2.40
2022-09-22T14:11:18.837Z,2.30
2022-09-22T14:14:07.266Z,1.73
2022-09-22T14:16:58.041Z,3.20
2022-09-22T14:19:36.392Z,4.55
2022-09-22T14:22:24.081Z,2.83
2022-09-22T14:25:00.920Z,1.85
2022-09-22T14:27:50.548Z,1.75
2022-09-22T14:30:20.406Z,2.55
2022-09-22T14:32:50.650Z,4.28
2022-09-22T14:35:31.992Z,7.32
2022-09-22T14:38:10.606Z,4.22
2022-09-22T14:41:04.662Z,3.37
2022-09-22T14:43:39.339Z,3.42
2022-09-22T14:46:31.378Z,1.92
2022-09-22T14:48:58.571Z,2.03
2022-09-22T14:51:27.754Z,1.73
2022-09-22T14:54:01.838Z,1.70
2022-09-22T14:56:36.898Z,2.20
2022-09-22T14:59:28.600Z,1.52
2022-09-22T15:02:15.760Z,2.78
2022-09-22T15:04:49.729Z,2.30
2022-09-22T15:07:29.427Z,1.77
2022-09-22T15:10:02.779Z,1.50
2022-09-22T15:12:47.362Z,1.98
2022-09-22T15:15:18.214Z,2.13
2022-09-22T15:18:06.760Z,1.67
2022-09-22T15:20:59.943Z,2.00
2022-09-22T15:23:39.693Z,1.77
2022-09-22T15:26:24.870Z,1.75
2022-09-22T15:28:54.558Z,2.80
2022-09-22T15:31:27.098Z,1.80
2022-09-22T15:34:03.213Z,1.83
2022-09-22T15:36:33.685Z,1.90
2022-09-22T15:39:12.172Z,1.80
2022-09-22T15:41:39.328Z,2.17
2022-09-22T15:44:09.087Z,1.70
2022-09-22T15:46:39.297Z,1.88
2022-09-22T15:49:21.086Z,1.80
2022-09-22T15:51:51.781Z,1.58
2022-09-22T15:54:21.640Z,1.60
2022-09-22T15:57:01.023Z,9.32
2022-09-22T15:59:35.358Z,1.67
2022-09-22T16:02:02.794Z,5.60
2022-09-22T16:04:34.390Z,2.28
2022-09-22T16:07:08.624Z,1.63
2022-09-22T16:09:37.429Z,9.40
2022-09-22T16:12:08.426Z,4.05
2022-09-22T16:14:36.942Z,3.17
2022-09-22T16:17:07.951Z,1.85
2022-09-22T16:19:35.941Z,1.63
2022-09-22T16:22:15.149Z,1.70
2022-09-22T16:24:44.490Z,1.65
2022-09-22T16:27:12.622Z,1.70
2022-09-22T16:29:48.158Z,1.55
2022-09-22T16:32:24.828Z,1.83
2022-09-22T16:34:54.061Z,1.92
2022-09-22T16:37:21.557Z,3.45
2022-09-22T16:39:49.799Z,3.88
2022-09-22T16:42:23.413Z,8.38
2022-09-22T16:44:54.034Z,6.60
2022-09-22T16:47:23.003Z,9.45
2022-09-22T16:49:54.533Z,4.10
2022-09-22T16:52:22.775Z,1.90
2022-09-22T16:54:51.996Z,2.30
2022-09-22T16:57:22.153Z,4.05
2022-09-22T16:59:50.642Z,6.68
2022-09-22T17:02:17.738Z,6.95
2022-09-22T17:04:56.951Z,14.27
2022-09-22T17:07:24.583Z,3.97
2022-09-22T17:09:58.646Z,4.45
2022-09-22T17:12:29.439Z,5.95
2022-09-22T17:15:01.515Z,6.70
2022-09-22T17:17:28.666Z,5.97
2022-09-22T17:19:55.728Z,5.90
2022-09-22T17:22:31.965Z,5.80
2022-09-22T17:25:29.412Z,6.60
2022-09-22T17:27:57.056Z,8.27
2022-09-22T17:30:33.289Z,7.75
2022-09-22T17:33:02.546Z,7.13
2022-09-22T17:35:30.587Z,5.75
2022-09-22T17:37:58.750Z,4.03
2022-09-22T17:40:51.714Z,3.80
2022-09-22T17:43:23.267Z,3.20
2022-09-22T17:45:54.309Z,3.65
2022-09-22T17:48:42.922Z,4.70
2022-09-22T17:51:50.303Z,4.25
2022-09-22T17:54:41.669Z,9.30
2022-09-22T17:57:13.481Z,31.77
2022-09-22T17:59:41.819Z,6.97
2022-09-22T18:02:36.802Z,8.10
2022-09-22T18:05:07.120Z,8.90
2022-09-22T18:07:36.920Z,17.63
2022-09-22T18:10:12.583Z,26.42
2022-09-22T18:12:41.587Z,23.63
2022-09-22T18:15:17.661Z,21.02
2022-09-22T18:17:46.719Z,13.13
2022-09-22T18:20:18.398Z,15.50
2022-09-22T18:23:10.576Z,15.10
2022-09-22T18:25:38.719Z,16.17
2022-09-22T18:28:16.683Z,18.73
2022-09-22T18:30:45.796Z,19.75
2022-09-22T18:33:37.013Z,20.80
2022-09-22T18:36:05.517Z,18.08
2022-09-22T18:38:49.226Z,15.05
2022-09-22T18:41:19.680Z,103.03
2022-09-22T18:43:49.501Z,65.07
2022-09-22T18:46:20.243Z,21.67
2022-09-22T18:48:54.174Z,27.05
2022-09-22T18:51:29.801Z,49.47
2022-09-22T18:54:01.108Z,15.63
2022-09-22T18:56:30.671Z,13.00
2022-09-22T18:58:57.737Z,17.10
2022-09-22T19:01:35.231Z,30.00
2022-09-22T19:04:03.936Z,24.38
2022-09-22T19:06:55.326Z,23.67
2022-09-22T19:09:28.295Z,13.00
2022-09-22T19:12:00.097Z,11.73
2022-09-22T19:14:39.415Z,11.63
2022-09-22T19:17:09.609Z,9.63
2022-09-22T19:19:38.133Z,11.13
2022-09-22T19:22:10.212Z,10.75
2022-09-22T19:24:46.351Z,9.60
2022-09-22T19:27:16.533Z,5.07
2022-09-22T19:29:51.114Z,7.03
2022-09-22T19:32:19.524Z,14.95
2022-09-22T19:34:46.784Z,11.48
2022-09-22T19:37:14.197Z,9.20
2022-09-22T19:39:42.878Z,11.43
2022-09-22T19:42:11.009Z,9.85
2022-09-22T19:44:41.172Z,10.27
2022-09-22T19:47:21.478Z,11.95
2022-09-22T19:49:55.232Z,11.27
2022-09-22T19:52:22.650Z,10.98
2022-09-22T19:54:50.916Z,6.57
2022-09-22T19:57:25.148Z,6.03
2022-09-22T19:59:53.420Z,4.47
2022-09-22T20:02:21.199Z,4.05
2022-09-22T20:04:56.103Z,3.88
2022-09-22T20:07:27.055Z,5.35
2022-09-22T20:09:56.793Z,7.13
2022-09-22T20:12:30.068Z,6.57
2022-09-22T20:14:58.131Z,6.25
2022-09-22T20:17:26.153Z,5.00
2022-09-22T20:19:59.117Z,4.40
2022-09-22T20:22:30.026Z,8.77
2022-09-22T20:25:01.699Z,16.48
2022-09-22T20:27:51.150Z,17.98
2022-09-22T20:30:26.149Z,6.57
2022-09-22T20:33:05.654Z,5.53
2022-09-22T20:35:35.918Z,5.20
2022-09-22T20:38:05.113Z,6.10
2022-09-22T20:40:35.232Z,5.70
2022-09-22T20:43:12.708Z,4.70
2022-09-22T20:45:49.166Z,5.65
2022-09-22T20:48:18.806Z,6.50
2022-09-22T20:50:56.083Z,5.55
2022-09-22T20:53:23.108Z,4.72
2022-09-22T20:56:10.948Z,4.30
2022-09-22T20:58:43.595Z,5.13
2022-09-22T21:01:13.177Z,4.25
2022-09-22T21:03:41.926Z,4.43
2022-09-22T21:06:22.758Z,5.45
2022-09-22T21:09:08.240Z,3.95
2022-09-22T21:11:37.632Z,3.60
2022-09-22T21:14:06.886Z,3.60
2022-09-22T21:16:36.687Z,3.70
2022-09-22T21:19:16.836Z,3.90
2022-09-22T21:21:52.034Z,3.78
2022-09-22T21:24:20.059Z,4.93
2022-09-22T21:26:47.255Z,5.15
2022-09-22T21:29:14.278Z,5.18
2022-09-22T21:31:41.666Z,5.10
2022-09-22T21:34:20.630Z,8.82
2022-09-22T21:36:47.765Z,6.22
2022-09-22T21:39:15.866Z,5.72
2022-09-22T21:41:50.752Z,5.70
2022-09-22T21:44:24.874Z,5.50
2022-09-22T21:46:57.036Z,9.40
2022-09-22T21:49:24.688Z,17.35
2022-09-22T21:51:51.760Z,13.55
2022-09-22T21:54:20.304Z,18.73
2022-09-22T21:56:50.698Z,10.60
2022-09-22T21:59:22.139Z,6.13
2022-09-22T22:01:51.204Z,5.88
2022-09-22T22:04:18.501Z,6.15
2022-09-22T22:06:46.982Z,10.30
2022-09-22T22:09:27.561Z,8.48
2022-09-22T22:11:59.625Z,10.23
2022-09-22T22:14:32.287Z,11.38
2022-09-22T22:17:04.488Z,11.47
2022-09-22T22:19:34.697Z,10.32
2022-09-22T22:22:05.633Z,10.32
2022-09-22T22:24:42.631Z,9.45
2022-09-22T22:27:27.217Z,8.10
2022-09-22T22:29:56.331Z,11.35
2022-09-22T22:32:25.479Z,12.23
2022-09-22T22:34:53.432Z,16.58
2022-09-22T22:37:22.418Z,10.20
2022-09-22T22:39:49.443Z,9.20
2022-09-22T22:42:18.400Z,10.23
2022-09-22T22:44:46.542Z,12.45
2022-09-22T22:47:19.536Z,13.10
2022-09-22T22:50:06.608Z,12.88
2022-09-22T22:52:34.576Z,13.85
2022-09-22T22:55:07.401Z,16.23
2022-09-22T22:57:35.410Z,11.88
2022-09-22T23:00:02.828Z,13.38
2022-09-22T23:02:30.641Z,14.95
2022-09-22T23:05:09.256Z,11.00
2022-09-22T23:07:48.292Z,12.68
2022-09-22T23:10:17.397Z,12.77
2022-09-22T23:12:47.003Z,15.43
2022-09-22T23:15:18.253Z,17.80
2022-09-22T23:17:59.388Z,23.08
2022-09-22T23:20:30.407Z,25.35
2022-09-22T23:22:58.540Z,22.95
2022-09-22T23:25:26.730Z,19.70
2022-09-22T23:28:02.216Z,17.33
2022-09-22T23:30:34.807Z,21.20
2022-09-22T23:33:02.992Z,18.05
2022-09-22T23:35:30.934Z,15.48
2022-09-22T23:37:58.099Z,14.23
2022-09-22T23:40:25.365Z,13.13
2022-09-22T23:42:52.839Z,10.98
2022-09-22T23:45:21.785Z,11.00
2022-09-22T23:47:52.876Z,14.13
2022-09-22T23:50:30.597Z,10.95
2022-09-22T23:52:58.856Z,10.50
2022-09-22T23:55:25.940Z,11.27
2022-09-22T23:57:52.970Z,11.75
